Purmela, Texas
Current Conditions -  °F | °C
As of 1:15 PM on Sunday 21 Dec 2014 (Local Time) from KGOP Reporting Station
Broken Clouds Broken Clouds  
Wind Chill: 54°   Ceiling: 1600
Heat Index: 54°   Visibility: 9mi
Dew Point: 46°   Wind: 12mph
Humidity: 77%   Direction: 190°S
Pressure: 29.98"   Gusts: 17mph
Location:  31.48°N, 97.96°W
Report Text: KGOP 211915Z AUTO 19010G15KT 9SM BKN016 12/08 A2998 RMK AO2 PWINO
Loading
Personal Weather Stations






























Interactive Weather Map New forecast layout! Learn more

10-Day Weather Forecast

Advertisements
Track Severe Weather on mobile